Time;durP1;ratioP1;P1;durP2;ratioP2;P2;SDS_P1;SDS_P2;PMS_P1;PMS_P2;Temp;Humidity;BMP_temperature;BMP_pressure;BME280_temperature;BME280_humidity;BME280_pressure;Samples;Min_cycle;Max_cycle;Signal;HPM_P1;HPM_P2
2023/06/14 03:17:00;;;;;;;3.60;1.38;;;13.90;60.80;;;;;;6194646;22;87567;-71
2023/06/14 03:19:26;;;;;;;5.05;1.02;;;13.90;60.60;;;;;;6249483;22;87385;-69
2023/06/14 03:21:53;;;;;;;2.85;1.10;;;13.90;62.00;;;;;;6249651;22;87533;-69
2023/06/14 03:24:19;;;;;;;8.15;1.50;;;13.90;62.10;;;;;;6248432;22;89151;-69
2023/06/14 03:26:45;;;;;;;3.13;1.10;;;14.00;60.60;;;;;;6248410;22;88076;-68
2023/06/14 03:29:11;;;;;;;3.30;1.20;;;14.00;61.80;;;;;;6249363;22;87256;-68
2023/06/14 03:31:55;;;;;;;5.05;1.80;;;13.90;62.50;;;;;;6250322;22;87413;-68
2023/06/14 03:34:21;;;;;;;3.22;1.35;;;13.90;60.90;;;;;;6248759;22;87829;-68
2023/06/14 03:36:46;;;;;;;4.60;0.82;;;13.90;59.60;;;;;;6249559;22;87636;-68
2023/06/14 03:39:12;;;;;;;4.20;1.27;;;14.00;60.10;;;;;;6249909;22;87411;-69
2023/06/14 03:41:38;;;;;;;3.92;1.40;;;14.00;60.10;;;;;;6250716;22;86712;-70
2023/06/14 03:44:03;;;;;;;6.05;1.13;;;14.00;59.90;;;;;;6249448;22;87616;-70
2023/06/14 03:46:29;;;;;;;5.07;1.63;;;14.10;59.90;;;;;;6249501;22;87398;-70
2023/06/14 03:48:55;;;;;;;7.90;1.20;;;14.10;59.90;;;;;;6248582;22;88172;-70
2023/06/14 03:51:22;;;;;;;3.03;1.33;;;14.20;61.20;;;;;;6249177;22;87067;-71
2023/06/14 03:53:48;;;;;;;3.30;1.13;;;14.50;61.60;;;;;;6248578;22;89044;-69
2023/06/14 03:56:13;;;;;;;3.67;1.23;;;15.00;60.80;;;;;;6249159;22;88232;-69
2023/06/14 03:58:39;;;;;;;4.97;1.65;;;15.30;59.80;;;;;;6249045;22;87335;-68
2023/06/14 04:01:06;;;;;;;3.63;1.65;;;15.80;58.20;;;;;;6249918;22;87475;-68
2023/06/14 04:03:33;;;;;;;4.32;1.50;;;16.20;57.20;;;;;;6248760;22;88085;-68
2023/06/14 04:05:59;;;;;;;3.33;1.40;;;16.70;55.10;;;;;;6251006;22;87864;-69
2023/06/14 04:08:25;;;;;;;5.85;1.70;;;17.10;54.40;;;;;;6249800;22;87346;-69
2023/06/14 04:10:51;;;;;;;6.32;2.35;;;17.40;54.10;;;;;;6250674;22;87113;-68
2023/06/14 04:13:17;;;;;;;4.70;1.52;;;18.10;53.50;;;;;;6249265;22;89042;-69
2023/06/14 04:15:45;;;;;;;7.78;1.77;;;18.40;51.90;;;;;;6250092;22;87957;-69
2023/06/14 04:18:11;;;;;;;5.13;1.45;;;18.80;52.40;;;;;;6222041;22;87683;-69
2023/06/14 04:20:37;;;;;;;5.97;2.10;;;19.30;50.60;;;;;;6218384;22;87279;-69
2023/06/14 04:23:21;;;;;;;7.25;2.20;;;19.80;50.40;;;;;;6219413;22;88043;-68
2023/06/14 04:25:46;;;;;;;10.85;2.15;;;20.40;49.20;;;;;;6218607;22;87693;-70
2023/06/14 04:28:15;;;;;;;4.13;2.30;;;20.70;48.70;;;;;;6219538;22;87498;-69
2023/06/14 04:30:40;;;;;;;4.63;1.88;;;21.10;47.10;;;;;;6220376;22;86411;-70
2023/06/14 04:33:06;;;;;;;8.70;2.25;;;21.40;46.90;;;;;;6218519;22;87462;-68
2023/06/14 04:35:32;;;;;;;4.28;2.20;;;21.50;45.60;;;;;;6219065;22;88897;-68
2023/06/14 04:37:59;;;;;;;4.13;2.25;;;21.40;46.00;;;;;;6218622;22;88482;-69
2023/06/14 04:40:25;;;;;;;13.93;2.75;;;21.60;45.10;;;;;;6218935;22;87366;-69
2023/06/14 04:42:51;;;;;;;5.15;2.40;;;21.80;44.70;;;;;;6218326;22;87605;-68
2023/06/14 04:45:16;;;;;;;5.82;2.40;;;22.40;43.40;;;;;;6219423;22;87725;-70
2023/06/14 04:47:43;;;;;;;5.80;2.40;;;23.00;42.60;;;;;;6216812;22;87210;-69
2023/06/14 04:50:10;;;;;;;7.95;2.40;;;23.40;41.60;;;;;;6217831;22;87342;-69
2023/06/14 04:52:37;;;;;;;9.25;2.58;;;23.70;41.70;;;;;;6218567;22;88105;-69
2023/06/14 04:55:03;;;;;;;10.77;3.15;;;24.30;40.70;;;;;;6217008;22;86859;-70
2023/06/14 04:57:29;;;;;;;6.50;3.00;;;24.60;40.30;;;;;;6216241;22;87310;-70
2023/06/14 04:59:55;;;;;;;11.77;2.90;;;24.90;40.00;;;;;;6217021;22;87103;-70
2023/06/14 05:02:25;;;;;;;7.20;3.10;;;25.10;38.70;;;;;;6217688;22;88273;-69
2023/06/14 05:04:51;;;;;;;7.80;2.97;;;25.90;38.40;;;;;;6215986;22;88628;-69
2023/06/14 05:07:17;;;;;;;9.57;2.63;;;26.30;38.50;;;;;;6218701;22;87420;-69
2023/06/14 05:09:43;;;;;;;9.85;2.15;;;26.40;37.80;;;;;;6218425;22;86999;-71
2023/06/14 05:12:09;;;;;;;8.35;2.85;;;26.80;38.50;;;;;;6217618;22;88019;-69
2023/06/14 05:14:35;;;;;;;5.20;3.22;;;27.50;37.60;;;;;;6217572;22;87719;-69
2023/06/14 05:17:02;;;;;;;3.88;2.25;;;27.80;36.70;;;;;;6216520;22;87312;-69
2023/06/14 05:19:28;;;;;;;6.07;3.33;;;28.30;36.40;;;;;;6218812;22;86668;-70
2023/06/14 05:21:54;;;;;;;9.60;3.10;;;29.20;37.00;;;;;;6216970;22;88233;-69
2023/06/14 05:24:19;;;;;;;4.85;3.22;;;29.70;35.50;;;;;;6218099;22;87704;-71
2023/06/14 05:26:46;;;;;;;8.88;3.78;;;30.20;37.10;;;;;;6216525;22;88160;-70
2023/06/14 05:29:12;;;;;;;5.82;3.65;;;30.70;36.00;;;;;;6218133;22;87919;-69
2023/06/14 05:31:37;;;;;;;7.03;4.03;;;30.80;35.00;;;;;;6217644;22;88747;-69
2023/06/14 05:34:04;;;;;;;7.18;4.03;;;30.80;35.70;;;;;;6218564;22;87731;-67
2023/06/14 05:36:30;;;;;;;6.88;3.45;;;31.10;35.50;;;;;;6219439;22;87256;-67
2023/06/14 05:38:59;;;;;;;7.90;3.67;;;31.50;35.20;;;;;;6218388;22;87247;-69
2023/06/14 05:41:28;;;;;;;8.43;4.30;;;31.30;36.00;;;;;;6218545;22;88050;-70
2023/06/14 05:43:55;;;;;;;5.00;3.95;;;31.20;35.60;;;;;;6218437;22;87701;-69
2023/06/14 05:46:24;;;;;;;5.95;3.70;;;31.60;35.20;;;;;;6219454;22;87303;-69
2023/06/14 05:48:51;;;;;;;7.65;3.25;;;31.90;35.20;;;;;;6219002;22;87231;-69
2023/06/14 05:51:18;;;;;;;5.38;3.35;;;32.80;35.60;;;;;;6217376;22;89741;-68
2023/06/14 05:53:48;;;;;;;4.57;2.70;;;33.00;34.50;;;;;;6218939;22;89181;-68
2023/06/14 05:56:15;;;;;;;5.75;2.63;;;33.30;34.20;;;;;;6219302;22;87461;-69
2023/06/14 05:58:41;;;;;;;7.97;4.00;;;33.70;34.40;;;;;;6219722;22;87046;-67
2023/06/14 06:01:06;;;;;;;5.82;4.15;;;34.20;34.50;;;;;;6217752;22;87590;-69
2023/06/14 06:03:32;;;;;;;8.48;3.92;;;34.00;33.20;;;;;;6216188;22;88107;-69
2023/06/14 06:05:58;;;;;;;6.25;4.15;;;34.50;33.60;;;;;;6189605;22;86992;-69
2023/06/14 06:08:24;;;;;;;7.05;3.83;;;34.60;32.80;;;;;;6213830;22;86749;-69
2023/06/14 06:10:50;;;;;;;8.13;4.05;;;34.80;33.30;;;;;;6212928;22;87889;-70
2023/06/14 06:13:16;;;;;;;5.40;3.67;;;35.50;31.20;;;;;;6215401;22;87663;-70
2023/06/14 06:15:42;;;;;;;8.90;5.50;;;35.90;32.00;;;;;;6215482;22;87927;-70
2023/06/14 06:18:07;;;;;;;7.43;4.90;;;35.80;31.80;;;;;;6215350;22;87653;-70
2023/06/14 06:20:33;;;;;;;8.40;5.07;;;35.80;32.30;;;;;;6214071;22;87657;-69
2023/06/14 06:22:59;;;;;;;6.63;4.50;;;35.60;31.40;;;;;;6214810;22;87466;-69
2023/06/14 06:25:27;;;;;;;5.72;4.53;;;35.60;31.30;;;;;;6214454;22;87396;-69
2023/06/14 06:27:54;;;;;;;6.03;4.97;;;35.70;31.90;;;;;;6215055;22;87277;-70
2023/06/14 06:30:20;;;;;;;6.43;5.32;;;36.50;31.10;;;;;;6213310;22;88123;-69
2023/06/14 06:32:47;;;;;;;8.43;4.75;;;36.60;30.90;;;;;;6216948;22;86534;-69
2023/06/14 06:35:13;;;;;;;8.48;5.15;;;36.80;30.90;;;;;;6216297;22;86986;-69
2023/06/14 06:37:40;;;;;;;8.73;4.63;;;36.80;30.70;;;;;;6216798;22;87543;-69
2023/06/14 06:40:06;;;;;;;7.95;5.00;;;37.10;30.90;;;;;;6215380;22;90347;-69
2023/06/14 06:42:32;;;;;;;5.75;4.43;;;37.70;31.00;;;;;;6215319;22;88814;-70
2023/06/14 06:44:58;;;;;;;8.13;4.93;;;38.00;29.90;;;;;;6216297;22;87115;-70
2023/06/14 06:47:24;;;;;;;6.28;4.90;;;38.10;30.40;;;;;;6217239;22;87361;-69
2023/06/14 06:49:50;;;;;;;12.32;4.68;;;38.40;29.70;;;;;;6215176;22;88605;-70
2023/06/14 06:52:16;;;;;;;7.97;5.15;;;38.70;29.90;;;;;;6215811;22;87515;-69
2023/06/14 06:54:42;;;;;;;7.63;4.78;;;39.00;30.10;;;;;;6215996;22;87448;-69
2023/06/14 06:57:08;;;;;;;7.57;5.32;;;38.50;30.40;;;;;;6217004;22;86317;-69
2023/06/14 06:59:34;;;;;;;6.10;5.50;;;38.90;30.30;;;;;;6215946;22;87503;-69
2023/06/14 07:02:00;;;;;;;5.60;5.10;;;39.60;29.50;;;;;;6213939;22;87244;-69
2023/06/14 07:04:26;;;;;;;6.20;5.35;;;39.90;29.30;;;;;;6211562;22;88429;-69
2023/06/14 07:06:51;;;;;;;8.45;5.85;;;39.90;29.50;;;;;;6213329;22;87269;-69
2023/06/14 07:09:19;;;;;;;11.55;5.20;;;39.90;29.60;;;;;;6212344;22;87768;-69
2023/06/14 07:11:46;;;;;;;8.27;5.00;;;40.00;30.00;;;;;;6211021;22;87699;-70
2023/06/14 07:14:12;;;;;;;6.10;5.50;;;39.70;30.00;;;;;;6212868;22;87536;-70
2023/06/14 07:16:38;;;;;;;6.40;5.75;;;40.10;29.30;;;;;;6214749;22;87361;-69
2023/06/14 07:19:05;;;;;;;6.97;6.32;;;40.20;29.50;;;;;;6215036;22;87973;-69
2023/06/14 07:21:30;;;;;;;6.35;5.35;;;40.40;29.80;;;;;;6214950;22;88111;-69
2023/06/14 07:23:56;;;;;;;6.55;5.32;;;39.80;29.90;;;;;;6214801;22;87280;-69
2023/06/14 07:26:23;;;;;;;5.85;5.25;;;40.00;29.80;;;;;;6216180;22;86967;-69
2023/06/14 07:28:49;;;;;;;6.72;6.03;;;40.40;29.90;;;;;;6215987;22;88469;-69
2023/06/14 07:31:16;;;;;;;9.73;6.35;;;40.30;29.50;;;;;;6215774;22;88140;-70
2023/06/14 07:33:42;;;;;;;9.00;5.63;;;40.80;29.70;;;;;;6215862;22;87418;-69
2023/06/14 07:36:08;;;;;;;8.93;6.18;;;41.20;28.70;;;;;;6217024;22;87368;-69
2023/06/14 07:38:34;;;;;;;8.70;6.25;;;41.40;29.10;;;;;;6216960;22;88710;-69
2023/06/14 07:41:00;;;;;;;8.75;6.95;;;41.80;28.50;;;;;;6217388;22;86997;-68
2023/06/14 07:43:26;;;;;;;10.57;6.43;;;41.90;28.50;;;;;;6217074;22;87312;-68
2023/06/14 07:45:52;;;;;;;8.93;6.60;;;41.80;28.20;;;;;;6218144;22;86582;-68
2023/06/14 07:48:18;;;;;;;11.02;5.97;;;41.40;28.30;;;;;;6217057;22;87935;-68
2023/06/14 07:50:44;;;;;;;7.53;6.90;;;41.60;28.70;;;;;;6215902;22;87333;-68
2023/06/14 07:53:09;;;;;;;9.73;6.72;;;41.10;28.90;;;;;;6216311;22;88341;-69
2023/06/14 07:55:36;;;;;;;7.40;6.63;;;41.70;29.20;;;;;;6216226;22;87186;-68
2023/06/14 07:58:03;;;;;;;6.68;6.00;;;41.60;28.30;;;;;;6216769;22;87403;-68
2023/06/14 08:00:29;;;;;;;9.32;6.63;;;41.50;28.20;;;;;;6217068;22;87509;-68
2023/06/14 08:03:01;;;;;;;10.60;6.45;;;41.60;28.80;;;;;;6216812;22;87085;-69
2023/06/14 08:05:27;;;;;;;7.90;5.82;;;42.00;28.10;;;;;;6215707;22;87770;-69
2023/06/14 08:07:53;;;;;;;8.43;6.25;;;42.30;28.50;;;;;;6186397;22;89163;-69
2023/06/14 08:10:19;;;;;;;11.60;4.97;;;42.50;28.10;;;;;;6215225;22;88018;-68
2023/06/14 08:12:45;;;;;;;6.05;5.20;;;42.50;28.00;;;;;;6216335;22;87386;-69
2023/06/14 08:15:11;;;;;;;9.40;6.72;;;42.00;28.30;;;;;;6214671;22;87404;-69
2023/06/14 08:17:37;;;;;;;9.32;8.27;;;42.30;28.50;;;;;;6213084;22;90716;-69
2023/06/14 08:20:06;;;;;;;8.10;6.82;;;42.80;28.10;;;;;;6213383;22;89189;-68
2023/06/14 08:22:36;;;;;;;8.55;7.65;;;42.00;28.60;;;;;;6213110;22;87784;-68
2023/06/14 08:25:02;;;;;;;11.38;6.85;;;42.50;28.80;;;;;;6211849;22;88161;-69
2023/06/14 08:27:27;;;;;;;7.60;6.90;;;43.00;28.50;;;;;;6215147;22;88402;-68
2023/06/14 08:29:53;;;;;;;9.35;8.55;;;42.90;28.10;;;;;;6214502;22;87243;-69
2023/06/14 08:32:19;;;;;;;7.97;7.18;;;42.80;27.60;;;;;;6215318;22;87391;-69
2023/06/14 08:34:45;;;;;;;6.32;4.35;;;43.10;28.50;;;;;;6213286;22;86864;-69
2023/06/14 08:37:11;;;;;;;7.22;5.00;;;43.80;27.40;;;;;;6214685;22;88186;-69
2023/06/14 08:39:37;;;;;;;10.30;7.10;;;44.00;27.30;;;;;;6214426;22;87418;-69
2023/06/14 08:42:04;;;;;;;9.68;6.95;;;44.20;27.10;;;;;;6212012;22;88284;-69
2023/06/14 08:44:33;;;;;;;7.97;6.97;;;44.20;27.90;;;;;;6215057;22;87294;-69
2023/06/14 08:47:03;;;;;;;8.98;8.07;;;44.30;27.00;;;;;;6214583;22;87898;-69
2023/06/14 08:49:30;;;;;;;11.45;8.10;;;44.50;27.10;;;;;;6214472;22;87512;-69
2023/06/14 08:52:00;;;;;;;8.80;7.03;;;44.90;27.10;;;;;;6213562;22;87389;-69
2023/06/14 08:54:30;;;;;;;9.27;8.30;;;44.80;26.90;;;;;;6216044;22;87458;-69
2023/06/14 08:56:59;;;;;;;8.25;7.40;;;45.10;26.40;;;;;;6214793;22;86914;-69
2023/06/14 08:59:26;;;;;;;8.63;7.80;;;45.50;27.00;;;;;;6214522;22;87752;-69
2023/06/14 09:01:54;;;;;;;9.32;8.52;;;45.40;26.10;;;;;;6214719;22;87768;-69
2023/06/14 09:04:23;;;;;;;9.70;8.07;;;45.40;26.30;;;;;;6213045;22;87568;-68
2023/06/14 09:06:52;;;;;;;6.18;5.22;;;44.90;26.70;;;;;;6209905;22;88477;-69
2023/06/14 09:09:25;;;;;;;4.72;4.15;;;45.60;26.70;;;;;;6210981;22;89220;-69
2023/06/14 09:11:51;;;;;;;8.68;7.88;;;45.90;26.10;;;;;;6187922;22;87414;-69
2023/06/14 09:14:24;;;;;;;9.13;8.27;;;46.00;25.80;;;;;;6214591;22;87319;-69
2023/06/14 09:16:54;;;;;;;10.68;8.90;;;46.00;26.20;;;;;;6213039;22;88123;-69
2023/06/14 09:19:26;;;;;;;8.65;7.30;;;46.80;25.90;;;;;;6214428;22;87672;-68
2023/06/14 09:21:53;;;;;;;9.05;8.15;;;46.90;25.80;;;;;;6214819;22;87555;-69
2023/06/14 09:24:19;;;;;;;9.35;8.48;;;46.80;26.30;;;;;;6215923;22;86644;-69
2023/06/14 09:26:47;;;;;;;9.85;8.85;;;46.90;25.50;;;;;;6214481;22;87583;-69
2023/06/14 09:29:13;;;;;;;8.82;8.02;;;47.00;26.20;;;;;;6212538;22;87799;-69
2023/06/14 09:31:39;;;;;;;6.93;6.20;;;46.70;26.20;;;;;;6213235;22;88621;-69
2023/06/14 09:34:05;;;;;;;6.60;5.22;;;46.40;25.50;;;;;;6215052;22;87792;-69
2023/06/14 09:36:32;;;;;;;8.07;7.38;;;46.70;25.80;;;;;;6214645;22;88647;-69
2023/06/14 09:39:00;;;;;;;12.38;8.23;;;46.80;25.90;;;;;;6213927;22;87502;-69
2023/06/14 09:41:32;;;;;;;8.93;8.13;;;46.70;25.90;;;;;;6214933;22;87458;-69
2023/06/14 09:44:00;;;;;;;8.95;8.23;;;46.70;26.50;;;;;;6215201;22;87650;-69
2023/06/14 09:46:27;;;;;;;10.43;8.05;;;46.10;25.10;;;;;;6215664;22;87625;-69
2023/06/14 09:48:53;;;;;;;5.80;5.13;;;45.90;26.50;;;;;;6215476;22;88422;-69
2023/06/14 09:51:21;;;;;;;9.18;7.80;;;45.60;25.90;;;;;;6212078;22;87297;-69
2023/06/14 09:53:49;;;;;;;10.13;9.07;;;45.10;25.90;;;;;;6215367;22;87530;-68
2023/06/14 09:56:31;;;;;;;8.07;7.28;;;44.90;26.00;;;;;;6212781;22;88753;-69
2023/06/14 09:58:58;;;;;;;10.65;5.78;;;44.50;26.10;;;;;;6213631;22;88200;-68
2023/06/14 10:01:27;;;;;;;5.90;5.30;;;43.60;26.80;;;;;;6209029;22;87365;-69
2023/06/14 10:03:58;;;;;;;6.78;3.65;;;42.50;27.20;;;;;;6215405;22;87544;-68
2023/06/14 10:06:26;;;;;;;9.30;5.22;;;40.90;27.80;;;;;;6217380;22;87583;-68
2023/06/14 10:08:59;;;;;;;11.18;4.40;;;39.10;28.90;;;;;;6217410;22;87771;-68
2023/06/14 10:11:28;;;;;;;6.25;4.57;;;37.90;30.80;;;;;;6218375;22;87482;-68
2023/06/14 10:13:58;;;;;;;9.48;4.18;;;36.80;31.30;;;;;;6217252;22;86720;-67
2023/06/14 10:16:32;;;;;;;5.18;3.80;;;35.20;32.30;;;;;;6214583;22;88141;-68
2023/06/14 10:19:34;;;;;;;6.35;3.28;;;34.50;31.00;;;;;;6217570;22;87369;-68
2023/06/14 10:22:06;;;;;;;4.40;3.22;;;33.90;32.50;;;;;;6178261;22;88338;-68
2023/06/14 10:24:41;;;;;;;6.88;3.13;;;33.30;34.40;;;;;;6217367;22;87477;-67
2023/06/14 10:27:10;;;;;;;7.50;3.10;;;32.60;34.20;;;;;;6216029;22;87446;-67
2023/06/14 10:29:54;;;;;;;6.97;2.63;;;32.10;33.10;;;;;;6217031;22;87877;-68
2023/06/14 10:32:21;;;;;;;6.43;3.42;;;31.70;35.60;;;;;;6217586;22;87386;-67
2023/06/14 10:35:14;;;;;;;9.57;2.58;;;31.40;34.40;;;;;;6216529;22;87729;-67
2023/06/14 10:37:39;;;;;;;4.43;2.72;;;31.10;35.60;;;;;;6215418;22;87509;-68
2023/06/14 10:40:08;;;;;;;6.20;2.63;;;30.80;34.80;;;;;;6216324;22;87134;-67
2023/06/14 10:42:34;;;;;;;;;;;30.70;36.30;;;;;;6217166;22;87130;-67
2023/06/14 10:45:00;;;;;;;4.25;2.67;;;30.60;35.10;;;;;;6216329;22;87408;-67
2023/06/14 10:47:32;;;;;;;9.85;2.70;;;30.40;37.00;;;;;;6186337;22;89183;-68
2023/06/14 10:50:05;;;;;;;12.70;2.20;;;30.10;37.00;;;;;;6214666;22;88732;-67
2023/06/14 10:52:43;;;;;;;3.47;2.53;;;30.10;39.70;;;;;;6216490;22;87550;-68
2023/06/14 10:55:17;;;;;;;6.55;2.50;;;30.00;36.50;;;;;;6216410;22;87378;-68
2023/06/14 10:57:51;;;;;;;4.03;2.60;;;30.10;36.50;;;;;;6216418;22;87828;-67
2023/06/14 11:00:22;;;;;;;3.55;2.33;;;30.00;37.50;;;;;;6213113;22;87141;-68
2023/06/14 11:03:25;;;;;;;5.35;2.78;;;29.80;38.50;;;;;;6215122;22;87297;-67
2023/06/14 11:05:53;;;;;;;5.60;1.70;;;29.60;39.50;;;;;;6217054;22;86537;-66
2023/06/14 11:08:28;;;;;;;9.98;3.03;;;29.70;37.60;;;;;;6216130;22;88465;-68
2023/06/14 11:10:59;;;;;;;6.90;2.25;;;29.70;38.20;;;;;;6214386;22;87708;-66
2023/06/14 11:13:26;;;;;;;5.90;2.47;;;29.80;37.60;;;;;;6215509;22;88158;-67
2023/06/14 11:15:57;;;;;;;4.55;2.40;;;29.70;40.10;;;;;;6216780;22;87120;-68
2023/06/14 11:18:27;;;;;;;6.55;2.35;;;29.60;36.80;;;;;;6215463;22;87596;-68
2023/06/14 11:20:53;;;;;;;7.03;2.05;;;29.50;37.40;;;;;;6215695;22;87781;-68
2023/06/14 11:23:21;;;;;;;10.88;2.72;;;29.30;38.00;;;;;;6216863;22;87313;-68
2023/06/14 11:25:51;;;;;;;5.95;2.63;;;29.20;39.20;;;;;;6216475;22;87390;-67
2023/06/14 11:28:19;;;;;;;4.38;2.40;;;29.60;37.60;;;;;;6214770;22;87972;-66
2023/06/14 11:30:45;;;;;;;4.47;3.03;;;29.80;38.80;;;;;;6215080;22;88530;-68
2023/06/14 11:33:17;;;;;;;6.60;2.42;;;29.70;35.10;;;;;;6216202;22;87305;-68
2023/06/14 11:35:42;;;;;;;6.25;2.90;;;29.50;39.00;;;;;;6215570;22;87387;-68
2023/06/14 11:38:10;;;;;;;5.13;2.50;;;29.50;38.20;;;;;;6213302;22;89206;-67
2023/06/14 11:40:38;;;;;;;6.22;1.83;;;29.50;37.70;;;;;;6215090;22;88666;-67
2023/06/14 11:43:04;;;;;;;6.05;2.50;;;29.60;37.60;;;;;;6216124;22;87060;-68
2023/06/14 11:45:30;;;;;;;7.95;2.33;;;29.70;38.40;;;;;;6215887;22;87388;-67
2023/06/14 11:47:57;;;;;;;4.65;2.83;;;29.60;36.70;;;;;;6215861;22;87995;-66
2023/06/14 11:50:24;;;;;;;5.60;1.42;;;29.70;37.20;;;;;;6215421;22;87799;-67
2023/06/14 11:52:57;;;;;;;3.65;2.38;;;29.70;35.70;;;;;;6215822;22;87344;-67
2023/06/14 11:55:24;;;;;;;7.53;2.95;;;29.70;37.40;;;;;;6215781;22;86673;-66
2023/06/14 11:57:50;;;;;;;4.85;2.92;;;29.60;36.90;;;;;;6214810;22;88402;-67
2023/06/14 12:00:17;;;;;;;5.63;2.55;;;29.50;36.40;;;;;;6185242;22;89317;-67
2023/06/14 12:02:51;;;;;;;5.88;2.38;;;29.30;35.20;;;;;;6215444;22;88250;-67
2023/06/14 12:05:21;;;;;;;5.28;1.27;;;29.20;35.50;;;;;;6215843;22;87338;-66
2023/06/14 12:07:47;;;;;;;4.35;2.33;;;29.20;36.80;;;;;;6215886;22;88047;-66
2023/06/14 12:10:14;;;;;;;6.25;2.40;;;29.30;37.50;;;;;;6214892;22;87537;-66
2023/06/14 12:12:41;;;;;;;6.13;2.63;;;29.20;35.50;;;;;;6215695;22;87459;-66
2023/06/14 12:15:09;;;;;;;4.47;1.92;;;29.10;36.70;;;;;;6216333;22;86986;-67
2023/06/14 12:17:41;;;;;;;7.25;2.60;;;29.00;36.50;;;;;;6214764;22;88509;-67
2023/06/14 12:20:10;;;;;;;10.88;2.50;;;29.10;36.00;;;;;;6216255;22;87311;-68
2023/06/14 12:22:37;;;;;;;6.68;2.10;;;29.30;36.20;;;;;;6216594;22;87223;-68
2023/06/14 12:25:03;;;;;;;4.90;2.40;;;29.40;37.80;;;;;;6216845;22;86981;-67
2023/06/14 12:27:29;;;;;;;4.90;2.47;;;29.40;34.80;;;;;;6215229;22;88554;-68
2023/06/14 12:30:05;;;;;;;5.53;1.95;;;29.20;37.20;;;;;;6216908;22;88832;-66
2023/06/14 12:32:30;;;;;;;4.38;2.55;;;29.20;36.70;;;;;;6217212;22;87642;-67
2023/06/14 12:34:56;;;;;;;5.22;2.28;;;29.20;36.20;;;;;;6217935;22;87647;-66
2023/06/14 12:37:22;;;;;;;6.88;2.25;;;29.10;36.90;;;;;;6216719;22;87376;-67
2023/06/14 12:39:48;;;;;;;3.80;2.05;;;29.20;36.70;;;;;;6216210;22;87950;-67
2023/06/14 12:42:14;;;;;;;8.52;2.97;;;29.30;36.60;;;;;;6216497;22;86922;-67
2023/06/14 12:44:40;;;;;;;7.10;2.28;;;29.30;36.10;;;;;;6218161;22;86586;-65
2023/06/14 12:47:07;;;;;;;4.10;2.25;;;29.30;36.30;;;;;;6216078;22;88194;-67
2023/06/14 12:49:33;;;;;;;5.85;2.38;;;29.20;35.50;;;;;;6216482;22;87251;-67
2023/06/14 12:51:59;;;;;;;4.22;2.17;;;29.30;36.50;;;;;;6216062;22;88548;-66
2023/06/14 12:54:27;;;;;;;3.47;2.40;;;29.20;35.10;;;;;;6216642;22;87297;-66
2023/06/14 12:56:54;;;;;;;3.88;1.98;;;29.20;34.50;;;;;;6215392;22;88085;-67
2023/06/14 12:59:20;;;;;;;8.75;2.17;;;29.10;36.40;;;;;;6213594;22;87695;-66
2023/06/14 13:01:49;;;;;;;3.08;1.35;;;29.20;37.00;;;;;;6217169;22;87337;-66
2023/06/14 13:04:15;;;;;;;5.50;2.80;;;29.10;33.20;;;;;;6218260;22;87169;-67
2023/06/14 13:06:41;;;;;;;3.75;2.10;;;28.90;36.80;;;;;;6211613;22;87808;-66
2023/06/14 13:09:07;;;;;;;8.32;2.40;;;28.90;35.70;;;;;;6218754;22;87255;-67
2023/06/14 13:11:33;;;;;;;6.03;2.20;;;28.80;37.10;;;;;;6216035;22;87447;-67
2023/06/14 13:13:59;;;;;;;6.00;2.72;;;29.00;36.50;;;;;;6218106;22;87484;-67
2023/06/14 13:16:25;;;;;;;8.15;2.53;;;28.90;34.90;;;;;;6217287;22;88537;-67
2023/06/14 13:18:50;;;;;;;5.15;2.20;;;28.90;36.10;;;;;;6218494;22;88476;-67
2023/06/14 13:21:16;;;;;;;6.47;2.38;;;29.00;37.10;;;;;;6217419;22;87238;-69
2023/06/14 13:23:42;;;;;;;5.05;1.80;;;29.00;36.10;;;;;;6218314;22;87380;-69
2023/06/14 13:26:08;;;;;;;4.13;2.20;;;28.90;36.00;;;;;;6217847;22;87930;-69
2023/06/14 13:28:35;;;;;;;6.20;2.33;;;29.00;36.60;;;;;;6217818;22;87713;-70
2023/06/14 13:31:01;;;;;;;6.15;2.13;;;29.10;35.10;;;;;;6219069;22;86966;-69
2023/06/14 13:33:27;;;;;;;5.85;1.92;;;29.10;36.00;;;;;;6217612;22;86521;-69
2023/06/14 13:35:55;;;;;;;3.58;1.95;;;29.10;35.40;;;;;;6218634;22;88443;-69
2023/06/14 13:38:23;;;;;;;4.28;2.28;;;29.10;36.50;;;;;;6218654;22;89445;-68
2023/06/14 13:40:48;;;;;;;10.60;2.33;;;29.10;34.50;;;;;;6217619;22;87885;-69
2023/06/14 13:43:14;;;;;;;3.88;1.50;;;29.10;35.30;;;;;;6217626;22;87126;-69
2023/06/14 13:45:40;;;;;;;8.10;1.83;;;29.00;34.60;;;;;;6216152;22;87588;-72
2023/06/14 13:48:06;;;;;;;4.45;2.13;;;28.90;35.50;;;;;;6215486;22;87834;-69
2023/06/14 13:50:31;;;;;;;4.05;2.00;;;29.00;36.10;;;;;;6217785;22;87388;-70
2023/06/14 13:52:57;;;;;;;4.25;1.92;;;29.00;36.20;;;;;;6219611;22;87375;-69
2023/06/14 13:55:23;;;;;;;7.30;2.67;;;28.90;35.30;;;;;;6218409;22;87365;-69
2023/06/14 13:57:48;;;;;;;4.53;1.92;;;28.70;35.70;;;;;;6218693;22;88146;-69
2023/06/14 14:00:14;;;;;;;5.30;1.95;;;28.70;36.50;;;;;;6219090;22;87436;-71
2023/06/14 14:02:40;;;;;;;4.65;2.35;;;28.80;36.20;;;;;;6218219;22;87499;-71
2023/06/14 14:05:06;;;;;;;4.80;1.67;;;28.90;35.90;;;;;;6217697;22;88589;-72
2023/06/14 14:07:32;;;;;;;5.82;1.85;;;29.00;35.00;;;;;;6218221;22;88844;-71
2023/06/14 14:09:58;;;;;;;5.68;2.38;;;29.10;34.90;;;;;;6219119;22;87368;-71
2023/06/14 14:12:25;;;;;;;4.60;1.35;;;29.00;34.60;;;;;;6218704;22;87633;-70
2023/06/14 14:14:51;;;;;;;3.88;2.30;;;28.90;35.60;;;;;;6214433;22;88008;-71
2023/06/14 14:17:17;;;;;;;4.25;1.80;;;28.90;35.30;;;;;;6216643;22;88517;-71
2023/06/14 14:19:43;;;;;;;5.22;2.40;;;28.80;34.30;;;;;;6218649;22;87165;-71
2023/06/14 14:22:08;;;;;;;4.63;2.47;;;28.70;35.10;;;;;;6218448;22;86744;-70
2023/06/14 14:24:34;;;;;;;5.22;1.75;;;28.60;34.40;;;;;;6217615;22;87889;-69
2023/06/14 14:27:00;;;;;;;8.38;2.45;;;28.60;33.50;;;;;;6218694;22;87312;-70
2023/06/14 14:29:28;;;;;;;7.22;2.50;;;28.60;37.00;;;;;;6218371;22;88243;-71
2023/06/14 14:31:55;;;;;;;3.35;2.40;;;28.60;35.50;;;;;;6218386;22;87763;-69
2023/06/14 14:34:21;;;;;;;5.03;1.85;;;28.50;34.20;;;;;;6218537;22;87880;-70
2023/06/14 14:36:47;;;;;;;4.57;2.20;;;28.50;34.60;;;;;;6218728;22;87613;-69
2023/06/14 14:39:12;;;;;;;5.20;2.15;;;28.40;34.50;;;;;;6218734;22;87617;-70
2023/06/14 14:41:39;;;;;;;6.65;2.00;;;28.40;34.80;;;;;;6219069;22;87349;-70
2023/06/14 14:44:05;;;;;;;4.80;1.77;;;28.50;35.80;;;;;;6216141;22;87349;-71
2023/06/14 14:46:31;;;;;;;5.45;1.90;;;28.40;33.90;;;;;;6214934;22;88356;-72
2023/06/14 14:48:59;;;;;;;6.03;2.50;;;28.30;32.90;;;;;;6217723;22;87428;-70
2023/06/14 14:51:24;;;;;;;5.53;2.42;;;28.30;35.30;;;;;;6220135;22;87241;-69
2023/06/14 14:53:51;;;;;;;7.43;1.88;;;28.30;34.90;;;;;;6218088;22;88679;-69
2023/06/14 14:56:17;;;;;;;3.13;1.67;;;28.20;35.40;;;;;;6220986;22;89066;-69
2023/06/14 14:58:42;;;;;;;3.90;1.98;;;28.30;34.60;;;;;;6219689;22;87394;-69
2023/06/14 15:01:08;;;;;;;7.93;2.90;;;28.40;35.30;;;;;;6219949;22;87378;-70
2023/06/14 15:03:34;;;;;;;4.43;1.83;;;28.40;35.20;;;;;;6220421;22;87679;-69
2023/06/14 15:05:59;;;;;;;5.18;2.05;;;28.30;34.40;;;;;;6220104;22;87797;-68
2023/06/14 15:08:25;;;;;;;5.43;1.75;;;28.30;34.10;;;;;;6220876;22;87271;-70
2023/06/14 15:10:51;;;;;;;4.35;2.00;;;28.30;35.70;;;;;;6221564;22;86209;-70
2023/06/14 15:13:16;;;;;;;7.70;1.60;;;28.30;34.50;;;;;;6220927;22;88517;-68
2023/06/14 15:15:42;;;;;;;6.53;2.03;;;28.20;34.70;;;;;;6219529;22;88263;-68
2023/06/14 15:18:09;;;;;;;6.05;2.05;;;28.10;35.40;;;;;;6215541;22;88226;-70
2023/06/14 15:20:36;;;;;;;7.00;1.88;;;28.10;35.00;;;;;;6221102;22;87389;-69
2023/06/14 15:23:02;;;;;;;7.03;1.85;;;28.10;34.90;;;;;;6217682;22;88718;-73
2023/06/14 15:25:29;;;;;;;6.32;1.75;;;28.00;34.40;;;;;;6219087;22;87667;-70
2023/06/14 15:27:55;;;;;;;4.57;1.88;;;27.90;35.50;;;;;;6221954;22;87606;-69
2023/06/14 15:30:21;;;;;;;3.50;2.00;;;27.90;35.90;;;;;;6220379;22;87357;-70
2023/06/14 15:32:47;;;;;;;5.47;2.05;;;28.00;34.10;;;;;;6218663;22;87718;-70
2023/06/14 15:35:13;;;;;;;3.83;1.88;;;27.90;35.40;;;;;;6218749;22;86831;-69
2023/06/14 15:37:39;;;;;;;6.63;1.60;;;28.00;34.80;;;;;;6219995;22;87523;-69
2023/06/14 15:40:05;;;;;;;5.20;1.38;;;27.90;35.90;;;;;;6220778;22;87536;-70
2023/06/14 15:42:31;;;;;;;6.15;1.92;;;27.90;35.60;;;;;;6219960;22;88131;-70
2023/06/14 15:44:57;;;;;;;4.30;2.17;;;28.00;36.50;;;;;;6220124;22;88846;-70
2023/06/14 15:47:23;;;;;;;3.22;1.08;;;28.00;33.10;;;;;;6220495;22;86938;-70
2023/06/14 15:49:49;;;;;;;4.55;1.25;;;27.90;33.80;;;;;;6221063;22;87363;-69
2023/06/14 15:52:15;;;;;;;3.78;2.10;;;27.90;35.10;;;;;;6220840;22;87877;-70
2023/06/14 15:54:40;;;;;;;3.35;1.63;;;27.80;35.30;;;;;;6220617;22;87269;-69
2023/06/14 15:57:06;;;;;;;3.90;2.10;;;27.90;36.10;;;;;;6221384;22;87608;-70
2023/06/14 15:59:33;;;;;;;5.38;1.10;;;27.90;35.10;;;;;;6222148;22;86134;-70
2023/06/14 16:01:59;;;;;;;3.83;1.50;;;27.80;34.30;;;;;;6216138;22;88413;-72